Time;durP1;ratioP1;P1;durP2;ratioP2;P2;SDS_P1;SDS_P2;PMS_P1;PMS_P2;Temp;Humidity;BMP_temperature;BMP_pressure;BME280_temperature;BME280_humidity;BME280_pressure;Samples;Min_cycle;Max_cycle;Signal;HPM_P1;HPM_P2
2023/08/04 00:00:06;;;;;;;30.13;10.95;;;;;;;;;;5073371;28;20469;-67
2023/08/04 00:02:31;;;;;;;27.05;11.15;;;;;;;;;;5068303;28;20088;-66
2023/08/04 00:04:56;;;;;;;27.60;10.43;;;;;;;;;;5071178;28;20084;-67
2023/08/04 00:07:21;;;;;;;36.20;11.05;;;;;;;;;;5071260;28;20036;-66
2023/08/04 00:09:47;;;;;;;27.13;11.27;;;;;;;;;;5071207;28;20032;-68
2023/08/04 00:12:12;;;;;;;26.73;9.95;;;;;;;;;;5071688;28;20036;-70
2023/08/04 00:14:37;;;;;;;31.10;10.50;;;;;;;;;;5070842;28;20428;-68
2023/08/04 00:17:02;;;;;;;27.27;10.23;;;;;;;;;;5071300;28;20017;-67
2023/08/04 00:19:28;;;;;;;28.50;10.43;;;;;;;;;;5074460;28;20039;-66
2023/08/04 00:21:53;;;;;;;28.88;9.85;;;;;;;;;;5074480;28;20029;-69
2023/08/04 00:24:18;;;;;;;25.45;10.85;;;;;;;;;;5073592;28;20036;-67
2023/08/04 00:26:43;;;;;;;28.77;11.18;;;;;;;;;;5075486;28;20028;-66
2023/08/04 00:29:08;;;;;;;34.03;10.60;;;;;;;;;;5080379;28;20028;-67
2023/08/04 00:31:34;;;;;;;30.98;10.68;;;;;;;;;;5072381;28;20111;-67
2023/08/04 00:33:59;;;;;;;21.65;9.80;;;;;;;;;;5061225;28;20013;-67
2023/08/04 00:36:24;;;;;;;25.67;10.88;;;;;;;;;;5075109;28;20021;-67
2023/08/04 00:38:49;;;;;;;31.08;10.65;;;;;;;;;;5075398;28;20380;-69
2023/08/04 00:41:15;;;;;;;22.92;9.95;;;;;;;;;;5074154;28;20471;-69
2023/08/04 00:43:40;;;;;;;23.13;9.75;;;;;;;;;;5075213;28;20354;-69
2023/08/04 00:46:05;;;;;;;26.80;9.38;;;;;;;;;;5074881;28;20420;-69
2023/08/04 00:48:31;;;;;;;28.02;9.93;;;;;;;;;;5063654;28;20083;-67
2023/08/04 00:50:56;;;;;;;21.38;9.60;;;;;;;;;;5075316;28;20024;-67
2023/08/04 00:53:22;;;;;;;27.55;9.55;;;;;;;;;;5074457;28;20024;-68
2023/08/04 00:55:48;;;;;;;35.40;9.32;;;;;;;;;;5074678;28;20024;-67
2023/08/04 00:58:13;;;;;;;21.45;8.82;;;;;;;;;;5075200;28;20013;-67
2023/08/04 01:03:42;;;;;;;24.90;8.82;;;;;;;;;;5073146;28;20043;-67
2023/08/04 01:06:13;;;;;;;27.05;9.10;;;;;;;;;;5071911;28;20054;-66
2023/08/04 01:08:42;;;;;;;27.38;9.20;;;;;;;;;;5073002;28;20013;-67
2023/08/04 01:11:09;;;;;;;20.50;8.52;;;;;;;;;;5071029;28;20029;-66
2023/08/04 01:13:34;;;;;;;21.83;9.07;;;;;;;;;;5069093;28;20111;-67
2023/08/04 01:16:04;;;;;;;22.20;9.35;;;;;;;;;;5073284;28;20451;-67
2023/08/04 01:18:29;;;;;;;26.08;11.13;;;;;;;;;;5072527;28;20044;-67
2023/08/04 01:20:54;;;;;;;21.25;9.88;;;;;;;;;;5074504;28;20389;-67
2023/08/04 01:23:20;;;;;;;24.20;10.07;;;;;;;;;;5074372;28;20032;-67
2023/08/04 01:25:45;;;;;;;27.65;11.10;;;;;;;;;;5072638;28;20742;-67
2023/08/04 01:28:15;;;;;;;23.67;9.95;;;;;;;;;;5070632;28;20024;-67
2023/08/04 01:30:42;;;;;;;22.40;10.15;;;;;;;;;;5074903;28;20039;-67
2023/08/04 01:33:07;;;;;;;26.38;10.20;;;;;;;;;;5074630;28;20487;-67
2023/08/04 01:35:33;;;;;;;23.30;10.32;;;;;;;;;;5074516;28;20032;-67
2023/08/04 01:37:58;;;;;;;27.33;10.52;;;;;;;;;;5073482;28;20028;-67
2023/08/04 01:40:23;;;;;;;28.80;11.25;;;;;;;;;;5073957;28;20362;-66
2023/08/04 01:42:49;;;;;;;25.20;9.43;;;;;;;;;;5063998;28;20068;-67
2023/08/04 01:45:14;;;;;;;28.10;10.18;;;;;;;;;;5067943;28;20024;-67
2023/08/04 01:47:39;;;;;;;25.63;9.90;;;;;;;;;;5065384;28;20100;-67
2023/08/04 01:50:08;;;;;;;23.80;9.32;;;;;;;;;;5072787;28;20058;-67
2023/08/04 01:52:33;;;;;;;30.50;10.45;;;;;;;;;;5073666;28;20012;-67
2023/08/04 01:54:59;;;;;;;23.55;10.05;;;;;;;;;;5073685;28;20027;-67
2023/08/04 01:57:24;;;;;;;24.98;10.77;;;;;;;;;;5074214;28;20020;-68
2023/08/04 01:59:49;;;;;;;25.15;10.25;;;;;;;;;;5072924;28;20029;-68
2023/08/04 02:02:14;;;;;;;25.27;10.07;;;;;;;;;;5083490;28;20028;-67
2023/08/04 02:04:39;;;;;;;25.83;10.55;;;;;;;;;;5071928;28;20092;-68
2023/08/04 02:07:05;;;;;;;26.95;10.82;;;;;;;;;;5074129;28;20085;-67
2023/08/04 02:09:30;;;;;;;25.55;9.95;;;;;;;;;;5072982;28;20033;-67
2023/08/04 02:11:55;;;;;;;22.10;9.73;;;;;;;;;;5073404;28;20506;-67
2023/08/04 02:14:21;;;;;;;27.10;10.98;;;;;;;;;;5073532;28;20146;-67
2023/08/04 02:16:46;;;;;;;29.98;10.85;;;;;;;;;;5073553;28;20487;-67
2023/08/04 02:19:12;;;;;;;27.45;10.50;;;;;;;;;;5070583;28;20360;-70
2023/08/04 02:21:37;;;;;;;25.88;10.80;;;;;;;;;;5073864;28;20563;-70
2023/08/04 02:24:03;;;;;;;29.67;10.80;;;;;;;;;;5073560;28;20029;-70
2023/08/04 02:26:28;;;;;;;27.58;11.38;;;;;;;;;;5073953;28;20031;-70
2023/08/04 02:28:54;;;;;;;29.73;12.70;;;;;;;;;;5071812;28;20384;-70
2023/08/04 02:31:19;;;;;;;28.35;11.93;;;;;;;;;;5053561;28;20452;-70
2023/08/04 02:33:45;;;;;;;27.27;11.95;;;;;;;;;;5070291;28;20033;-70
2023/08/04 02:36:11;;;;;;;30.65;11.77;;;;;;;;;;5071559;28;20017;-70
2023/08/04 02:38:36;;;;;;;28.45;11.38;;;;;;;;;;5072791;28;20384;-70
2023/08/04 02:41:04;;;;;;;25.20;11.32;;;;;;;;;;5071267;28;20021;-70
2023/08/04 02:43:30;;;;;;;28.88;11.00;;;;;;;;;;5071595;28;20028;-70
2023/08/04 02:45:55;;;;;;;24.17;10.65;;;;;;;;;;5070905;28;20111;-70
2023/08/04 02:48:20;;;;;;;24.77;10.80;;;;;;;;;;5072950;28;20028;-70
2023/08/04 02:50:46;;;;;;;24.83;10.98;;;;;;;;;;5072545;28;20033;-70
2023/08/04 02:53:12;;;;;;;23.90;10.60;;;;;;;;;;5055292;28;20063;-70
2023/08/04 02:55:37;;;;;;;23.23;10.80;;;;;;;;;;5072164;28;20468;-70
2023/08/04 02:58:03;;;;;;;27.70;11.15;;;;;;;;;;5073466;28;20031;-70
2023/08/04 03:00:28;;;;;;;24.65;10.52;;;;;;;;;;5072581;28;20027;-70
2023/08/04 03:02:53;;;;;;;27.00;10.77;;;;;;;;;;5072007;28;20414;-70
2023/08/04 03:05:18;;;;;;;21.92;10.13;;;;;;;;;;5071095;28;20052;-70
2023/08/04 03:07:44;;;;;;;25.50;9.82;;;;;;;;;;5070246;28;20017;-70
2023/08/04 03:10:09;;;;;;;26.70;10.18;;;;;;;;;;5070202;28;20464;-70
2023/08/04 03:12:34;;;;;;;24.02;10.30;;;;;;;;;;5073108;28;20400;-70
2023/08/04 03:14:59;;;;;;;24.33;9.68;;;;;;;;;;5068477;28;20028;-70
2023/08/04 03:17:25;;;;;;;22.80;9.38;;;;;;;;;;5065140;28;20417;-72
2023/08/04 03:19:50;;;;;;;25.92;9.18;;;;;;;;;;5070500;28;20020;-70
2023/08/04 03:22:15;;;;;;;18.25;8.68;;;;;;;;;;5072583;28;20029;-71
2023/08/04 03:24:41;;;;;;;21.88;8.73;;;;;;;;;;5066666;28;20039;-70
2023/08/04 03:27:06;;;;;;;20.42;8.77;;;;;;;;;;5071836;28;20040;-68
2023/08/04 03:29:31;;;;;;;22.48;8.55;;;;;;;;;;5070938;28;20024;-68
2023/08/04 03:31:56;;;;;;;18.83;8.35;;;;;;;;;;5071998;28;20111;-68
2023/08/04 03:34:22;;;;;;;19.80;9.40;;;;;;;;;;5071361;28;20071;-67
2023/08/04 03:36:47;;;;;;;19.25;8.48;;;;;;;;;;5071701;28;20039;-68
2023/08/04 03:39:13;;;;;;;21.63;8.32;;;;;;;;;;5071382;28;20032;-69
2023/08/04 03:41:38;;;;;;;15.52;8.10;;;;;;;;;;5071585;28;20529;-67
2023/08/04 03:44:03;;;;;;;18.27;8.05;;;;;;;;;;5072399;28;20017;-68
2023/08/04 03:46:28;;;;;;;19.08;8.20;;;;;;;;;;5065154;28;20111;-69
2023/08/04 03:48:54;;;;;;;20.73;9.27;;;;;;;;;;5070986;28;20021;-69
2023/08/04 03:51:19;;;;;;;19.73;7.82;;;;;;;;;;5070762;28;20035;-68
2023/08/04 03:53:45;;;;;;;20.73;8.20;;;;;;;;;;5063164;28;20028;-68
2023/08/04 03:56:10;;;;;;;20.83;9.18;;;;;;;;;;5082711;28;20413;-70
2023/08/04 03:58:35;;;;;;;19.17;8.20;;;;;;;;;;5072358;28;20025;-68
2023/08/04 04:01:01;;;;;;;18.70;8.60;;;;;;;;;;5064216;28;20025;-69
2023/08/04 04:03:26;;;;;;;19.00;8.70;;;;;;;;;;5063258;28;20030;-67
2023/08/04 04:05:51;;;;;;;19.02;9.23;;;;;;;;;;5060817;28;20028;-68
2023/08/04 04:08:16;;;;;;;18.90;8.45;;;;;;;;;;5071955;28;20032;-67
2023/08/04 04:10:41;;;;;;;19.83;8.55;;;;;;;;;;5070477;28;20380;-69
2023/08/04 04:13:07;;;;;;;19.10;9.70;;;;;;;;;;5059743;28;20469;-68
2023/08/04 04:15:32;;;;;;;23.42;9.02;;;;;;;;;;5071232;28;20047;-69
2023/08/04 04:17:57;;;;;;;21.15;9.55;;;;;;;;;;5071303;28;20044;-67
2023/08/04 04:20:25;;;;;;;18.60;8.60;;;;;;;;;;5072500;28;20078;-69
2023/08/04 04:22:52;;;;;;;18.23;8.73;;;;;;;;;;5071477;28;20046;-70
2023/08/04 04:25:20;;;;;;;18.35;8.93;;;;;;;;;;5070804;28;20500;-71
2023/08/04 04:27:46;;;;;;;22.30;8.70;;;;;;;;;;5072221;28;20468;-68
2023/08/04 04:30:11;;;;;;;18.17;8.35;;;;;;;;;;5066777;28;20030;-68
2023/08/04 04:32:36;;;;;;;18.02;8.55;;;;;;;;;;5070719;28;20483;-71
2023/08/04 04:35:01;;;;;;;19.23;8.98;;;;;;;;;;5066513;28;20020;-70
2023/08/04 04:37:27;;;;;;;20.63;9.02;;;;;;;;;;5072271;28;20023;-70
2023/08/04 04:39:52;;;;;;;18.65;9.60;;;;;;;;;;5061944;28;20008;-70
2023/08/04 04:42:17;;;;;;;20.70;8.85;;;;;;;;;;5071455;28;20028;-70
2023/08/04 04:44:43;;;;;;;20.50;8.45;;;;;;;;;;5066658;28;20017;-70
2023/08/04 04:47:09;;;;;;;21.40;8.75;;;;;;;;;;5064281;28;20021;-70
2023/08/04 04:49:34;;;;;;;20.23;9.20;;;;;;;;;;5074822;28;20032;-70
2023/08/04 04:51:59;;;;;;;20.58;8.93;;;;;;;;;;5061572;28;20024;-70
2023/08/04 04:54:25;;;;;;;18.50;8.90;;;;;;;;;;5067848;28;20017;-70
2023/08/04 04:56:50;;;;;;;17.02;8.23;;;;;;;;;;5067466;28;20056;-70
2023/08/04 04:59:15;;;;;;;22.20;8.35;;;;;;;;;;5067961;28;20025;-70
2023/08/04 05:01:40;;;;;;;17.13;8.00;;;;;;;;;;5066834;28;20020;-70
2023/08/04 05:04:06;;;;;;;21.08;9.32;;;;;;;;;;5068588;28;20036;-71
2023/08/04 05:06:31;;;;;;;21.50;8.73;;;;;;;;;;5070947;28;20027;-70
2023/08/04 05:08:56;;;;;;;17.85;8.30;;;;;;;;;;5070641;28;20024;-71
2023/08/04 05:11:21;;;;;;;15.52;8.15;;;;;;;;;;5072787;28;20024;-70
2023/08/04 05:13:47;;;;;;;22.33;8.75;;;;;;;;;;5072480;28;20107;-70
2023/08/04 05:16:12;;;;;;;21.80;8.60;;;;;;;;;;5072534;28;20017;-70
2023/08/04 05:18:37;;;;;;;17.60;7.93;;;;;;;;;;5069858;28;20028;-70
2023/08/04 05:21:03;;;;;;;16.67;8.55;;;;;;;;;;5077014;28;20039;-70
2023/08/04 05:23:28;;;;;;;15.88;7.75;;;;;;;;;;5066102;28;20025;-71
2023/08/04 05:25:53;;;;;;;18.70;7.85;;;;;;;;;;5075176;28;20093;-70
2023/08/04 05:28:23;;;;;;;22.80;7.65;;;;;;;;;;5074740;28;20021;-70
2023/08/04 05:30:48;;;;;;;19.02;7.80;;;;;;;;;;5074700;28;20056;-71
2023/08/04 05:33:14;;;;;;;15.35;7.40;;;;;;;;;;5074758;28;20134;-71
2023/08/04 05:35:40;;;;;;;15.10;7.70;;;;;;;;;;5075014;28;20135;-70
2023/08/04 05:38:05;;;;;;;19.13;7.90;;;;;;;;;;5072519;28;20054;-70
2023/08/04 05:40:32;;;;;;;16.23;7.70;;;;;;;;;;5074737;28;20056;-71
2023/08/04 05:42:58;;;;;;;13.63;7.07;;;;;;;;;;5074289;28;20028;-70
2023/08/04 05:45:24;;;;;;;15.63;7.20;;;;;;;;;;5074621;28;20782;-70
2023/08/04 05:47:49;;;;;;;13.70;7.25;;;;;;;;;;5073204;28;20106;-66
2023/08/04 05:50:14;;;;;;;15.77;7.18;;;;;;;;;;5071732;28;20036;-67
2023/08/04 05:52:39;;;;;;;15.13;7.20;;;;;;;;;;5074591;28;20039;-66
2023/08/04 05:55:05;;;;;;;13.63;6.82;;;;;;;;;;5055777;28;20021;-66
2023/08/04 05:57:30;;;;;;;14.30;6.97;;;;;;;;;;5064365;28;20071;-66
2023/08/04 05:59:55;;;;;;;12.52;6.72;;;;;;;;;;5074232;28;20261;-67
2023/08/04 06:02:21;;;;;;;15.43;6.57;;;;;;;;;;5074559;28;20029;-67
2023/08/04 06:04:46;;;;;;;15.00;6.38;;;;;;;;;;5091570;28;20116;-66
2023/08/04 06:07:11;;;;;;;12.07;6.35;;;;;;;;;;5094389;28;20036;-65
2023/08/04 06:09:36;;;;;;;14.68;5.55;;;;;;;;;;5079575;28;20059;-67
2023/08/04 06:12:02;;;;;;;12.32;5.53;;;;;;;;;;5073326;28;20029;-65
2023/08/04 06:14:27;;;;;;;12.43;5.22;;;;;;;;;;5074296;28;20017;-65
2023/08/04 06:16:52;;;;;;;10.32;4.80;;;;;;;;;;5073456;28;20017;-64
2023/08/04 06:19:17;;;;;;;13.23;4.97;;;;;;;;;;5073785;28;20028;-66
2023/08/04 06:21:43;;;;;;;10.20;4.60;;;;;;;;;;5074207;28;20021;-65
2023/08/04 06:24:08;;;;;;;11.88;4.50;;;;;;;;;;5073682;28;20027;-64
2023/08/04 06:26:33;;;;;;;11.65;4.22;;;;;;;;;;5073821;28;20026;-65
2023/08/04 06:28:59;;;;;;;12.38;4.70;;;;;;;;;;5072936;28;20017;-67
2023/08/04 06:31:24;;;;;;;11.77;4.40;;;;;;;;;;5073718;28;20021;-65
2023/08/04 06:33:49;;;;;;;9.38;4.78;;;;;;;;;;5073320;28;20020;-65
2023/08/04 06:36:14;;;;;;;9.00;4.15;;;;;;;;;;5073885;28;20885;-66
2023/08/04 06:38:40;;;;;;;10.68;4.30;;;;;;;;;;5073532;28;20457;-65
2023/08/04 06:41:05;;;;;;;10.85;4.60;;;;;;;;;;5067696;28;20481;-67
2023/08/04 06:43:30;;;;;;;11.85;4.75;;;;;;;;;;5075923;28;20032;-66
2023/08/04 06:45:55;;;;;;;10.73;3.72;;;;;;;;;;5069823;28;20043;-65
2023/08/04 06:48:21;;;;;;;14.00;4.22;;;;;;;;;;5077194;28;20025;-66
2023/08/04 06:50:47;;;;;;;10.43;3.83;;;;;;;;;;5071575;28;20070;-67
2023/08/04 06:53:12;;;;;;;10.77;4.50;;;;;;;;;;5070824;28;20060;-65
2023/08/04 06:55:37;;;;;;;11.23;3.58;;;;;;;;;;5072687;28;20032;-65
2023/08/04 06:58:02;;;;;;;9.98;4.05;;;;;;;;;;5067369;28;20021;-65
2023/08/04 07:00:28;;;;;;;9.02;4.32;;;;;;;;;;5063006;28;20108;-66
2023/08/04 07:02:53;;;;;;;9.32;3.90;;;;;;;;;;5068608;28;20127;-65
2023/08/04 07:05:18;;;;;;;12.68;4.18;;;;;;;;;;5063295;28;20063;-66
2023/08/04 07:07:45;;;;;;;11.65;4.10;;;;;;;;;;5073421;28;20032;-65
2023/08/04 07:10:11;;;;;;;8.98;4.10;;;;;;;;;;5089947;28;20032;-65
2023/08/04 07:12:36;;;;;;;8.15;3.90;;;;;;;;;;5093115;28;20377;-65
2023/08/04 07:15:01;;;;;;;11.32;4.45;;;;;;;;;;5093452;28;20112;-66
2023/08/04 07:17:27;;;;;;;14.10;4.90;;;;;;;;;;5093460;28;20444;-65
2023/08/04 07:19:52;;;;;;;9.30;4.43;;;;;;;;;;5074748;28;20373;-63
2023/08/04 07:22:18;;;;;;;6.72;3.67;;;;;;;;;;5072752;28;20100;-63
2023/08/04 07:24:43;;;;;;;5.93;3.25;;;;;;;;;;5072392;28;20031;-63
2023/08/04 07:27:08;;;;;;;8.63;4.03;;;;;;;;;;5072059;28;20036;-64
2023/08/04 07:29:34;;;;;;;10.75;3.70;;;;;;;;;;5072651;28;20493;-64
2023/08/04 07:32:00;;;;;;;11.77;3.72;;;;;;;;;;5072446;28;20025;-65
2023/08/04 07:34:25;;;;;;;9.50;3.70;;;;;;;;;;5072932;28;20477;-64
2023/08/04 07:36:51;;;;;;;8.35;3.28;;;;;;;;;;5071811;28;20104;-64
2023/08/04 07:39:16;;;;;;;5.68;2.92;;;;;;;;;;5072559;28;20095;-66
2023/08/04 07:41:41;;;;;;;9.43;3.17;;;;;;;;;;5072311;28;20021;-66
2023/08/04 07:44:07;;;;;;;8.30;3.40;;;;;;;;;;5072713;28;20032;-65
2023/08/04 07:46:32;;;;;;;10.00;3.70;;;;;;;;;;5072003;28;20481;-66
2023/08/04 07:48:57;;;;;;;16.67;4.90;;;;;;;;;;5072168;28;20380;-64
2023/08/04 07:51:23;;;;;;;9.57;3.45;;;;;;;;;;5072260;28;20030;-64
2023/08/04 07:53:48;;;;;;;9.45;3.33;;;;;;;;;;5071741;28;20067;-67
2023/08/04 07:56:13;;;;;;;7.35;2.78;;;;;;;;;;5071813;28;20049;-65
2023/08/04 07:58:39;;;;;;;5.43;2.92;;;;;;;;;;5071911;28;20008;-63
2023/08/04 08:01:04;;;;;;;5.90;2.53;;;;;;;;;;5072201;28;20415;-62
2023/08/04 08:03:30;;;;;;;18.55;4.95;;;;;;;;;;5071842;28;20024;-62
2023/08/04 08:05:55;;;;;;;8.48;3.03;;;;;;;;;;5072175;28;20082;-62
2023/08/04 08:08:20;;;;;;;5.05;1.70;;;;;;;;;;5072132;28;20020;-62
2023/08/04 08:10:46;;;;;;;3.88;1.70;;;;;;;;;;5071432;28;20022;-62
2023/08/04 08:13:11;;;;;;;4.95;1.48;;;;;;;;;;5072247;28;20043;-61
2023/08/04 08:15:36;;;;;;;4.43;1.52;;;;;;;;;;5071950;28;20017;-62
2023/08/04 08:18:02;;;;;;;4.15;1.50;;;;;;;;;;5072288;28;20028;-64
2023/08/04 08:20:27;;;;;;;4.80;2.10;;;;;;;;;;5072396;28;20388;-63
2023/08/04 08:22:53;;;;;;;4.85;1.70;;;;;;;;;;5071982;28;20050;-63
2023/08/04 08:25:18;;;;;;;3.10;1.40;;;;;;;;;;5072341;28;20123;-61
2023/08/04 08:27:44;;;;;;;3.70;1.50;;;;;;;;;;5071939;28;20024;-62
2023/08/04 08:30:10;;;;;;;2.78;1.20;;;;;;;;;;5071942;28;20029;-63
2023/08/04 08:32:35;;;;;;;4.07;1.30;;;;;;;;;;5072224;28;20480;-66
2023/08/04 08:35:00;;;;;;;6.63;1.42;;;;;;;;;;5072148;28;20027;-65
2023/08/04 08:37:25;;;;;;;5.25;1.38;;;;;;;;;;5072001;28;20024;-63
2023/08/04 08:39:51;;;;;;;2.97;1.30;;;;;;;;;;5074278;28;20094;-64
2023/08/04 08:42:16;;;;;;;3.78;1.10;;;;;;;;;;5075400;28;20032;-63
2023/08/04 08:44:41;;;;;;;7.38;1.52;;;;;;;;;;5075732;28;20024;-64
2023/08/04 08:47:07;;;;;;;5.22;1.50;;;;;;;;;;5075580;28;20034;-64
2023/08/04 08:49:37;;;;;;;6.90;1.45;;;;;;;;;;5073440;28;20020;-65
2023/08/04 08:52:06;;;;;;;4.30;1.40;;;;;;;;;;5075344;28;20024;-67
2023/08/04 08:54:32;;;;;;;4.68;1.52;;;;;;;;;;5075383;28;20023;-67
2023/08/04 08:56:57;;;;;;;6.40;1.33;;;;;;;;;;5075799;28;20103;-67
2023/08/04 08:59:22;;;;;;;5.75;1.30;;;;;;;;;;5075835;28;20435;-66
2023/08/04 09:01:48;;;;;;;3.63;1.20;;;;;;;;;;5075425;28;20357;-68
2023/08/04 09:04:13;;;;;;;2.90;1.10;;;;;;;;;;5075324;28;20052;-64
2023/08/04 09:06:38;;;;;;;3.25;0.98;;;;;;;;;;5075420;28;20021;-65
2023/08/04 09:09:05;;;;;;;5.53;1.13;;;;;;;;;;5075216;28;20103;-64
2023/08/04 09:11:30;;;;;;;4.43;1.38;;;;;;;;;;5075329;28;20528;-65
2023/08/04 09:13:56;;;;;;;2.60;1.10;;;;;;;;;;5075075;28;20159;-65
2023/08/04 09:16:36;;;;;;;2.42;1.10;;;;;;;;;;5075188;28;20025;-66
2023/08/04 09:19:06;;;;;;;4.55;1.42;;;;;;;;;;5085991;28;20479;-69
2023/08/04 09:21:31;;;;;;;4.72;1.10;;;;;;;;;;5084860;28;20016;-69
2023/08/04 09:23:56;;;;;;;5.45;1.00;;;;;;;;;;5074926;28;20031;-67
2023/08/04 09:26:22;;;;;;;5.93;0.90;;;;;;;;;;5075267;28;20095;-68
2023/08/04 09:29:03;;;;;;;2.05;0.80;;;;;;;;;;5074906;28;20020;-69
2023/08/04 09:31:33;;;;;;;1.92;0.63;;;;;;;;;;5057196;28;20108;-67
2023/08/04 09:33:59;;;;;;;2.13;0.57;;;;;;;;;;5074902;28;20033;-67
2023/08/04 09:36:24;;;;;;;2.50;0.60;;;;;;;;;;5074849;28;20376;-67
2023/08/04 09:38:49;;;;;;;0.70;0.43;;;;;;;;;;5074922;28;20453;-67
2023/08/04 09:41:17;;;;;;;1.73;0.30;;;;;;;;;;5074990;28;20372;-68
2023/08/04 09:43:52;;;;;;;3.88;0.60;;;;;;;;;;5073452;28;20031;-68
2023/08/04 09:46:17;;;;;;;1.92;0.50;;;;;;;;;;5070240;28;20034;-67
2023/08/04 09:48:42;;;;;;;2.55;0.50;;;;;;;;;;5070780;28;20525;-67
2023/08/04 09:51:08;;;;;;;2.30;0.55;;;;;;;;;;5072877;28;20016;-68
2023/08/04 09:53:45;;;;;;;0.80;0.40;;;;;;;;;;5074217;28;20023;-67
2023/08/04 09:56:12;;;;;;;4.53;0.50;;;;;;;;;;5072559;28;20013;-67
2023/08/04 09:58:38;;;;;;;1.45;0.40;;;;;;;;;;5074686;28;20469;-67
2023/08/04 10:01:03;;;;;;;1.50;0.50;;;;;;;;;;5074620;28;20420;-67
2023/08/04 10:03:29;;;;;;;1.92;0.38;;;;;;;;;;5074394;28;20044;-66
2023/08/04 10:05:57;;;;;;;3.47;0.35;;;;;;;;;;5090092;28;20472;-67
2023/08/04 10:08:23;;;;;;;1.15;0.30;;;;;;;;;;5082991;28;20458;-67
2023/08/04 10:10:50;;;;;;;1.02;0.50;;;;;;;;;;5076047;28;20031;-67
2023/08/04 10:13:16;;;;;;;1.33;0.50;;;;;;;;;;5073944;28;20070;-67
2023/08/04 10:15:42;;;;;;;3.35;0.50;;;;;;;;;;5074045;28;20028;-67
2023/08/04 10:18:08;;;;;;;1.05;0.40;;;;;;;;;;5074253;28;20020;-67
2023/08/04 10:20:34;;;;;;;3.10;0.50;;;;;;;;;;5070556;28;20043;-67
2023/08/04 10:22:59;;;;;;;1.58;0.50;;;;;;;;;;5074199;28;20044;-67
2023/08/04 10:25:25;;;;;;;1.75;0.50;;;;;;;;;;5074088;28;20020;-68
2023/08/04 10:27:50;;;;;;;1.23;0.50;;;;;;;;;;5074117;28;20507;-67
2023/08/04 10:30:16;;;;;;;5.50;0.93;;;;;;;;;;5073685;28;20116;-66
2023/08/04 10:32:42;;;;;;;1.80;0.50;;;;;;;;;;5073586;28;20163;-67
2023/08/04 10:35:16;;;;;;;2.35;0.50;;;;;;;;;;5073555;28;20020;-67
2023/08/04 10:37:53;;;;;;;1.90;0.50;;;;;;;;;;5073939;28;20046;-62
2023/08/04 10:40:28;;;;;;;2.40;0.55;;;;;;;;;;5073432;28;20035;-62
2023/08/04 10:42:59;;;;;;;1.77;0.52;;;;;;;;;;5070137;28;20074;-64
2023/08/04 10:45:44;;;;;;;1.42;0.50;;;;;;;;;;5073472;28;20016;-62
2023/08/04 10:48:13;;;;;;;2.42;0.70;;;;;;;;;;5073214;28;20465;-63
2023/08/04 10:50:38;;;;;;;1.67;0.50;;;;;;;;;;5074559;28;20481;-63
2023/08/04 10:53:04;;;;;;;2.53;0.52;;;;;;;;;;5073294;28;20035;-64
2023/08/04 10:55:29;;;;;;;2.55;0.63;;;;;;;;;;5073225;28;20028;-63
2023/08/04 10:57:54;;;;;;;3.30;0.60;;;;;;;;;;5072977;28;20017;-64
2023/08/04 11:00:19;;;;;;;1.67;0.60;;;;;;;;;;5073127;28;20035;-63
2023/08/04 11:02:44;;;;;;;3.08;0.57;;;;;;;;;;5072597;28;20115;-64
2023/08/04 11:05:12;;;;;;;0.93;0.50;;;;;;;;;;5072746;28;20051;-63
2023/08/04 11:07:43;;;;;;;2.92;0.60;;;;;;;;;;5073238;28;20476;-67
2023/08/04 11:10:09;;;;;;;2.22;0.70;;;;;;;;;;5073234;28;20393;-65
2023/08/04 11:12:35;;;;;;;2.08;0.82;;;;;;;;;;5072745;28;20032;-65
2023/08/04 11:15:01;;;;;;;1.63;0.65;;;;;;;;;;5063570;28;20542;-68
2023/08/04 11:17:27;;;;;;;1.95;0.60;;;;;;;;;;5060990;28;20020;-66
2023/08/04 11:19:52;;;;;;;2.45;0.85;;;;;;;;;;5072537;28;20381;-64
2023/08/04 11:22:19;;;;;;;1.65;0.70;;;;;;;;;;5072001;28;20021;-64
2023/08/04 11:24:44;;;;;;;4.03;0.90;;;;;;;;;;5068283;28;20543;-68
2023/08/04 11:27:15;;;;;;;4.30;1.35;;;;;;;;;;5075285;28;20111;-66
2023/08/04 11:29:40;;;;;;;39.42;6.72;;;;;;;;;;5068553;28;20460;-67
2023/08/04 11:32:20;;;;;;;6.38;1.40;;;;;;;;;;5071532;28;20025;-68
2023/08/04 11:34:46;;;;;;;5.82;1.27;;;;;;;;;;5065860;28;20020;-68
2023/08/04 11:37:11;;;;;;;3.90;0.80;;;;;;;;;;5071260;28;20126;-65
2023/08/04 11:39:38;;;;;;;2.30;0.70;;;;;;;;;;5069532;28;20380;-66
2023/08/04 11:42:08;;;;;;;1.45;0.68;;;;;;;;;;5072514;28;20028;-67
2023/08/04 11:44:33;;;;;;;4.22;0.80;;;;;;;;;;5067088;28;20016;-66
2023/08/04 11:47:01;;;;;;;2.53;0.77;;;;;;;;;;5069126;28;20407;-67
2023/08/04 11:49:28;;;;;;;1.92;0.68;;;;;;;;;;5063583;28;20048;-69
2023/08/04 11:51:53;;;;;;;2.90;0.77;;;;;;;;;;5072323;28;20025;-69
2023/08/04 11:54:23;;;;;;;2.10;0.60;;;;;;;;;;5068504;28;20017;-69
2023/08/04 11:56:55;;;;;;;2.88;0.93;;;;;;;;;;5069829;28;20021;-70
2023/08/04 11:59:20;;;;;;;5.47;0.88;;;;;;;;;;5069868;28;20028;-72
2023/08/04 12:01:46;;;;;;;3.60;0.90;;;;;;;;;;5075654;28;20025;-71
2023/08/04 12:04:31;;;;;;;5.32;0.90;;;;;;;;;;5068723;28;20520;-70
2023/08/04 12:06:58;;;;;;;3.85;0.70;;;;;;;;;;5067326;28;20041;-70
2023/08/04 12:09:23;;;;;;;4.25;0.77;;;;;;;;;;5067813;28;20016;-71
2023/08/04 12:11:49;;;;;;;4.95;0.80;;;;;;;;;;5070316;28;20017;-71
2023/08/04 12:14:15;;;;;;;3.90;0.63;;;;;;;;;;5075918;28;20115;-72
2023/08/04 12:16:47;;;;;;;3.53;0.60;;;;;;;;;;5072405;28;20012;-72
2023/08/04 12:19:13;;;;;;;2.28;0.70;;;;;;;;;;5072805;28;20101;-70
2023/08/04 12:21:38;;;;;;;2.83;0.68;;;;;;;;;;5073672;28;20111;-71
2023/08/04 12:24:03;;;;;;;3.45;0.80;;;;;;;;;;5074866;28;20051;-73
2023/08/04 12:26:28;;;;;;;3.22;0.63;;;;;;;;;;5073797;28;20017;-73
2023/08/04 12:28:54;;;;;;;2.80;0.80;;;;;;;;;;5080755;28;20488;-72
2023/08/04 12:31:19;;;;;;;2.15;0.68;;;;;;;;;;5072325;28;20027;-72
2023/08/04 12:33:44;;;;;;;3.55;0.80;;;;;;;;;;5072052;28;20048;-72
2023/08/04 12:36:09;;;;;;;4.57;1.00;;;;;;;;;;5074730;28;20020;-72
2023/08/04 12:38:34;;;;;;;2.92;0.85;;;;;;;;;;5076140;28;20465;-72
2023/08/04 12:41:00;;;;;;;3.15;0.70;;;;;;;;;;5076130;28;20462;-71
2023/08/04 12:43:25;;;;;;;4.28;0.80;;;;;;;;;;5075970;28;20025;-71
2023/08/04 12:45:50;;;;;;;3.50;0.70;;;;;;;;;;5075552;28;20099;-72
2023/08/04 12:48:15;;;;;;;4.32;0.73;;;;;;;;;;5075847;28;20028;-71
2023/08/04 12:50:41;;;;;;;2.63;0.75;;;;;;;;;;5074492;28;20146;-73
2023/08/04 12:53:06;;;;;;;2.67;0.80;;;;;;;;;;5068753;28;20120;-72
2023/08/04 12:55:31;;;;;;;1.45;0.60;;;;;;;;;;5074063;28;20023;-71
2023/08/04 12:57:56;;;;;;;2.72;0.80;;;;;;;;;;5075584;28;20106;-71
2023/08/04 13:00:22;;;;;;;3.65;0.88;;;;;;;;;;5075260;28;20021;-71
2023/08/04 13:02:47;;;;;;;1.42;0.60;;;;;;;;;;5075524;28;20025;-70
2023/08/04 13:05:12;;;;;;;2.40;0.75;;;;;;;;;;5072902;28;20461;-70
2023/08/04 13:07:37;;;;;;;4.60;0.65;;;;;;;;;;5071575;28;20047;-70
2023/08/04 13:10:03;;;;;;;1.60;0.60;;;;;;;;;;5071438;28;20024;-70
2023/08/04 13:12:28;;;;;;;4.68;0.65;;;;;;;;;;5075086;28;20035;-71
2023/08/04 13:14:53;;;;;;;2.53;0.70;;;;;;;;;;5075414;28;20055;-72
2023/08/04 13:17:18;;;;;;;3.08;0.63;;;;;;;;;;5074369;28;20020;-72
2023/08/04 13:19:47;;;;;;;1.65;0.50;;;;;;;;;;5075271;28;20062;-70
2023/08/04 13:22:12;;;;;;;1.45;0.50;;;;;;;;;;5075307;28;20104;-72
2023/08/04 13:24:38;;;;;;;3.17;0.60;;;;;;;;;;5071398;28;20083;-71
2023/08/04 13:27:05;;;;;;;3.08;0.50;;;;;;;;;;5074187;28;20048;-73
2023/08/04 13:29:30;;;;;;;2.00;0.63;;;;;;;;;;5072598;28;20039;-75
2023/08/04 13:31:55;;;;;;;1.50;0.50;;;;;;;;;;5074785;28;20024;-77
2023/08/04 13:34:21;;;;;;;2.78;0.70;;;;;;;;;;5074001;28;20016;-78
2023/08/04 13:36:46;;;;;;;4.22;0.80;;;;;;;;;;5075429;28;20024;-76
2023/08/04 13:39:11;;;;;;;3.00;0.65;;;;;;;;;;5070552;28;20017;-75
2023/08/04 13:41:37;;;;;;;2.25;0.60;;;;;;;;;;5074779;28;20027;-76
2023/08/04 13:44:03;;;;;;;2.95;0.73;;;;;;;;;;5073614;28;20029;-72
2023/08/04 13:46:29;;;;;;;3.33;0.70;;;;;;;;;;5072851;28;20025;-73
2023/08/04 13:48:54;;;;;;;2.58;0.70;;;;;;;;;;5072668;28;20162;-73
2023/08/04 13:51:19;;;;;;;1.73;0.70;;;;;;;;;;5072593;28;20115;-74
2023/08/04 13:53:44;;;;;;;2.05;0.60;;;;;;;;;;5072491;28;20615;-74
2023/08/04 13:56:10;;;;;;;3.40;0.98;;;;;;;;;;5069360;28;20027;-75
2023/08/04 13:58:35;;;;;;;0.63;0.25;;;;;;;;;;5072670;28;20012;-75
2023/08/04 14:01:02;;;;;;;1.55;0.40;;;;;;;;;;5071653;28;20024;-75
2023/08/04 14:03:27;;;;;;;1.98;0.30;;;;;;;;;;5069154;28;20461;-76
2023/08/04 14:05:59;;;;;;;2.08;0.40;;;;;;;;;;5064355;28;20029;-76
2023/08/04 14:08:24;;;;;;;1.13;0.30;;;;;;;;;;5069809;28;20103;-76
2023/08/04 14:10:50;;;;;;;2.13;0.40;;;;;;;;;;5070470;28;20170;-75
2023/08/04 14:13:15;;;;;;;1.95;0.50;;;;;;;;;;5070766;28;20020;-76
2023/08/04 14:15:40;;;;;;;1.63;0.40;;;;;;;;;;5072508;28;20095;-74
2023/08/04 14:18:06;;;;;;;1.38;0.40;;;;;;;;;;5073798;28;20016;-77
2023/08/04 14:20:31;;;;;;;2.45;0.60;;;;;;;;;;5072391;28;20469;-76
2023/08/04 14:22:56;;;;;;;5.32;0.82;;;;;;;;;;5074020;28;20477;-76
2023/08/04 14:25:21;;;;;;;6.25;0.88;;;;;;;;;;5076216;28;20548;-79
2023/08/04 14:27:47;;;;;;;3.20;0.50;;;;;;;;;;5101235;28;20032;-76